Time;durP1;ratioP1;P1;durP2;ratioP2;P2;SDS_P1;SDS_P2;PMS_P1;PMS_P2;Temp;Humidity;BMP_temperature;BMP_pressure;BME280_temperature;BME280_humidity;BME280_pressure;Samples;Min_cycle;Max_cycle;Signal;HPM_P1;HPM_P2
2022/04/18 00:00:19;;;;;;;;;;;13.40;99.90;;;;;;5068036;28;19992;-87
2022/04/18 00:02:44;;;;;;;;;;;13.30;99.90;;;;;;5067532;28;20195;-87
2022/04/18 00:05:10;;;;;;;;;;;13.30;99.90;;;;;;5066817;28;19905;-87
2022/04/18 00:07:35;;;;;;;;;;;13.30;99.90;;;;;;5069239;28;19904;-87
2022/04/18 00:10:01;;;;;;;;;;;13.30;99.90;;;;;;5066525;28;19958;-88
2022/04/18 00:12:28;;;;;;;;;;;13.30;99.90;;;;;;5065794;28;21215;-88
2022/04/18 00:14:54;;;;;;;;;;;13.20;99.90;;;;;;5066696;28;19905;-87
2022/04/18 00:17:19;;;;;;;;;;;13.20;99.90;;;;;;5066252;28;19967;-88
2022/04/18 00:19:45;;;;;;;;;;;13.20;99.90;;;;;;5066693;28;20193;-88
2022/04/18 00:22:10;;;;;;;;;;;13.20;99.90;;;;;;5066114;28;20217;-88
2022/04/18 00:24:36;;;;;;;;;;;13.20;99.90;;;;;;5067626;28;19909;-87
2022/04/18 00:27:02;;;;;;;;;;;13.20;99.90;;;;;;5063201;28;19904;-88
2022/04/18 00:29:28;;;;;;;;;;;13.20;99.90;;;;;;5063134;28;19980;-88
2022/04/18 00:31:53;;;;;;;;;;;13.20;99.90;;;;;;5063269;28;19908;-87
2022/04/18 00:34:19;;;;;;;;;;;13.20;99.90;;;;;;5062950;28;19909;-88
2022/04/18 00:36:45;;;;;;;;;;;13.20;99.90;;;;;;5064743;28;19939;-89
2022/04/18 00:39:11;;;;;;;;;;;13.20;99.90;;;;;;5063136;28;20150;-87
2022/04/18 00:41:37;;;;;;;;;;;13.10;99.90;;;;;;5062840;28;19976;-88
2022/04/18 00:44:02;;;;;;;;;;;13.10;99.90;;;;;;5062987;28;19905;-88
2022/04/18 00:46:28;;;;;;;;;;;13.10;99.90;;;;;;5064155;28;19904;-88
2022/04/18 00:48:54;;;;;;;;;;;13.10;99.90;;;;;;5063883;28;20011;-88
2022/04/18 00:51:21;;;;;;;;;;;13.10;99.90;;;;;;5064218;28;19932;-87
2022/04/18 00:53:47;;;;;;;;;;;13.10;99.90;;;;;;5063992;28;19912;-88
2022/04/18 00:56:13;;;;;;;;;;;13.10;99.90;;;;;;5062639;28;19905;-88
2022/04/18 00:58:41;;;;;;;;;;;13.10;99.90;;;;;;5062189;28;19905;-88
2022/04/18 01:01:06;;;;;;;;;;;13.10;99.90;;;;;;5063684;28;19943;-87
2022/04/18 01:03:32;;;;;;;;;;;13.10;99.90;;;;;;5063546;28;19905;-88
2022/04/18 01:06:01;;;;;;;;;;;13.10;99.90;;;;;;5062723;28;19905;-88
2022/04/18 01:08:31;;;;;;;;;;;13.10;99.90;;;;;;5063911;28;19927;-87
2022/04/18 01:10:57;;;;;;;;;;;13.10;99.90;;;;;;5062436;28;19919;-88
2022/04/18 01:13:22;;;;;;;;;;;13.20;99.90;;;;;;5063886;28;19905;-87
2022/04/18 01:15:55;;;;;;;;;;;13.20;99.90;;;;;;5057016;28;19928;-88
2022/04/18 01:18:20;;;;;;;;;;;13.20;99.90;;;;;;5063245;28;19972;-88
2022/04/18 01:20:46;;;;;;;;;;;13.20;99.90;;;;;;5067846;28;20246;-87
2022/04/18 01:23:12;;;;;;;;;;;13.20;99.90;;;;;;5082899;28;19950;-88
2022/04/18 01:29:01;;;;;;;;;;;13.20;99.90;;;;;;5001758;28;20042;-88
2022/04/18 01:31:28;;;;;;;;;;;13.30;99.90;;;;;;4984450;28;19914;-87
2022/04/18 01:33:53;;;;;;;;;;;13.30;99.90;;;;;;5033411;28;19904;-88
2022/04/18 01:36:19;;;;;;;;;;;13.30;99.90;;;;;;5083229;28;19919;-87
2022/04/18 01:38:44;;;;;;;;;;;13.30;99.90;;;;;;5064742;28;20096;-87
2022/04/18 01:41:13;;;;;;;;;;;13.30;99.90;;;;;;5064268;28;20206;-88
2022/04/18 01:43:38;;;;;;;;;;;13.40;99.90;;;;;;5064847;28;20074;-88
2022/04/18 01:46:04;;;;;;;;;;;13.40;99.90;;;;;;5083040;28;19951;-87
2022/04/18 01:48:29;;;;;;;;;;;13.40;99.90;;;;;;5082838;28;19908;-88
2022/04/18 01:50:55;;;;;;;;;;;13.40;99.90;;;;;;5082788;28;19912;-88
2022/04/18 01:53:21;;;;;;;;;;;13.40;99.90;;;;;;5064965;28;19905;-88
2022/04/18 01:55:47;;;;;;;;;;;13.30;99.90;;;;;;5082732;28;19950;-88
2022/04/18 01:58:12;;;;;;;;;;;13.40;99.90;;;;;;5066958;28;19904;-88
2022/04/18 02:00:38;;;;;;;;;;;13.40;99.90;;;;;;5084126;28;19950;-88
2022/04/18 02:03:03;;;;;;;;;;;13.30;99.90;;;;;;5082403;28;19979;-88
2022/04/18 02:05:29;;;;;;;;;;;13.40;99.90;;;;;;5082727;28;19904;-87
2022/04/18 02:07:54;;;;;;;;;;;13.40;99.90;;;;;;5082630;28;19909;-88
2022/04/18 02:10:20;;;;;;;;;;;13.50;99.90;;;;;;5082130;28;19916;-87
2022/04/18 02:12:45;;;;;;;;;;;13.40;99.90;;;;;;5063797;28;19966;-87
2022/04/18 02:15:11;;;;;;;;;;;13.50;99.90;;;;;;5064762;28;19947;-88
2022/04/18 02:17:36;;;;;;;;;;;13.50;99.90;;;;;;5081631;28;19975;-88
2022/04/18 02:20:02;;;;;;;;;;;13.50;99.90;;;;;;5064167;28;19905;-88
2022/04/18 02:22:30;;;;;;;;;;;13.50;99.90;;;;;;5082099;28;19920;-88
2022/04/18 02:24:56;;;;;;;;;;;13.30;99.90;;;;;;5082517;28;19912;-87
2022/04/18 02:27:22;;;;;;;;;;;13.30;99.90;;;;;;5064329;28;19904;-88
2022/04/18 02:29:47;;;;;;;;;;;13.40;99.90;;;;;;5082044;28;19958;-88
2022/04/18 02:34:57;;;;;;;;;;;13.30;99.90;;;;;;5082228;28;19911;-88
2022/04/18 02:37:23;;;;;;;;;;;13.20;99.90;;;;;;5064305;28;19913;-88
2022/04/18 02:39:48;;;;;;;;;;;13.10;99.90;;;;;;5082155;28;19915;-87
2022/04/18 02:42:14;;;;;;;;;;;13.10;99.90;;;;;;5064235;28;19951;-88
2022/04/18 02:44:42;;;;;;;;;;;13.10;99.90;;;;;;5064283;28;19904;-89
2022/04/18 02:47:07;;;;;;;;;;;13.00;99.90;;;;;;5063953;28;19950;-88
2022/04/18 02:49:33;;;;;;;;;;;13.00;99.90;;;;;;5081252;28;19904;-88
2022/04/18 02:51:58;;;;;;;;;;;13.10;99.90;;;;;;5081924;28;19930;-88
2022/04/18 02:54:24;;;;;;;;;;;13.10;99.90;;;;;;5064086;28;19912;-88
2022/04/18 02:56:49;;;;;;;;;;;13.10;99.90;;;;;;5081893;28;19912;-88
2022/04/18 02:59:15;;;;;;;;;;;13.20;99.90;;;;;;5064264;28;19905;-88
2022/04/18 03:01:41;;;;;;;;;;;13.10;99.90;;;;;;5057420;28;19904;-88
2022/04/18 03:04:07;;;;;;;;;;;13.00;99.90;;;;;;5063731;28;19908;-88
2022/04/18 03:06:32;;;;;;;;;;;13.00;99.90;;;;;;5063894;28;19915;-87
2022/04/18 03:09:01;;;;;;;;;;;13.10;99.90;;;;;;5063826;28;19905;-88
2022/04/18 03:11:26;;;;;;;;;;;13.10;99.90;;;;;;5063662;28;19912;-88
2022/04/18 03:13:52;;;;;;;;;;;13.30;99.90;;;;;;5081685;28;19904;-88
2022/04/18 03:16:18;;;;;;;;;;;13.20;99.90;;;;;;5081674;28;19950;-88
2022/04/18 03:18:44;;;;;;;;;;;13.20;99.90;;;;;;5063051;28;19905;-88
2022/04/18 03:21:10;;;;;;;;;;;13.10;99.90;;;;;;5081064;28;19963;-88
2022/04/18 03:23:35;;;;;;;;;;;13.10;99.90;;;;;;5081118;28;19905;-87
2022/04/18 03:26:02;;;;;;;;;;;13.00;99.90;;;;;;5063411;28;19966;-88
2022/04/18 03:28:28;;;;;;;;;;;13.00;99.90;;;;;;5081288;28;19991;-88
2022/04/18 03:30:53;;;;;;;;;;;13.00;99.90;;;;;;5081274;28;20193;-87
2022/04/18 03:33:19;;;;;;;;;;;12.80;99.90;;;;;;5062804;28;19960;-88
2022/04/18 03:41:16;;;;;;;;;;;13.00;99.90;;;;;;5081312;28;19961;-87
2022/04/18 03:43:41;;;;;;;;;;;13.00;99.90;;;;;;5081245;28;19904;-89
2022/04/18 03:46:07;;;;;;;;;;;13.10;99.90;;;;;;5081247;28;19975;-88
2022/04/18 03:48:32;;;;;;;;;;;13.20;99.90;;;;;;5074743;28;19904;-88
2022/04/18 03:50:58;;;;;;;;;;;13.20;99.90;;;;;;5084270;28;19920;-87
2022/04/18 03:53:24;;;;;;;;;;;13.20;99.90;;;;;;5081820;28;19905;-87
2022/04/18 03:55:50;;;;;;;;;;;13.20;99.90;;;;;;5063434;28;20376;-87
2022/04/18 03:58:15;;;;;;;;;;;13.20;99.90;;;;;;5062533;28;20008;-88
2022/04/18 04:00:42;;;;;;;;;;;13.20;99.90;;;;;;5062595;28;19905;-88
2022/04/18 04:03:08;;;;;;;;;;;13.30;99.90;;;;;;5065975;28;19946;-88
2022/04/18 04:05:33;;;;;;;;;;;13.20;99.90;;;;;;5084822;28;19912;-88
2022/04/18 04:07:59;;;;;;;;;;;13.10;99.90;;;;;;5067073;28;19930;-88
2022/04/18 04:10:25;;;;;;;;;;;13.10;99.90;;;;;;5084876;28;19962;-87
2022/04/18 04:12:50;;;;;;;;;;;13.20;99.90;;;;;;5084879;28;20097;-88
2022/04/18 04:15:16;;;;;;;;;;;13.20;99.90;;;;;;5084786;28;19908;-88
2022/04/18 04:17:42;;;;;;;;;;;13.10;99.90;;;;;;5084252;28;19912;-87
2022/04/18 04:20:07;;;;;;;;;;;13.20;99.90;;;;;;5084462;28;20082;-88
2022/04/18 04:22:33;;;;;;;;;;;13.20;99.90;;;;;;5084307;28;19916;-88
2022/04/18 04:24:58;;;;;;;;;;;13.20;99.90;;;;;;5066995;28;20118;-88
2022/04/18 04:27:24;;;;;;;;;;;13.20;99.90;;;;;;5066752;28;20069;-88
2022/04/18 04:29:50;;;;;;;;;;;13.20;99.90;;;;;;5066534;28;19909;-88
2022/04/18 04:32:15;;;;;;;;;;;13.10;99.90;;;;;;5066392;28;19971;-87
2022/04/18 04:34:42;;;;;;;;;;;13.10;99.90;;;;;;5084332;28;20096;-87
2022/04/18 04:37:08;;;;;;;;;;;13.20;99.90;;;;;;5084355;28;19915;-87
2022/04/18 04:39:33;;;;;;;;;;;13.10;99.90;;;;;;5066634;28;19904;-87
2022/04/18 04:41:59;;;;;;;;;;;13.10;99.90;;;;;;5066433;28;19930;-88
2022/04/18 04:44:24;;;;;;;;;;;13.20;99.90;;;;;;5066409;28;19904;-87
2022/04/18 04:46:51;;;;;;;;;;;13.20;99.90;;;;;;5083975;28;19971;-87
2022/04/18 04:49:16;;;;;;;;;;;13.20;99.90;;;;;;5066514;28;19908;-88
2022/04/18 04:51:42;;;;;;;;;;;13.20;99.90;;;;;;5066145;28;19913;-88
2022/04/18 04:54:08;;;;;;;;;;;13.20;99.90;;;;;;5066210;28;19923;-88
2022/04/18 04:56:34;;;;;;;;;;;13.10;99.90;;;;;;5066390;28;19958;-87
2022/04/18 04:58:59;;;;;;;;;;;13.10;99.90;;;;;;5084137;28;19911;-88
2022/04/18 05:01:25;;;;;;;;;;;13.10;99.90;;;;;;5066168;28;19905;-87
2022/04/18 05:03:51;;;;;;;;;;;13.10;99.90;;;;;;5065640;28;19927;-88
2022/04/18 05:06:16;;;;;;;;;;;13.20;99.90;;;;;;5066083;28;20068;-88
2022/04/18 05:08:42;;;;;;;;;;;13.20;99.90;;;;;;5083754;28;19911;-87
2022/04/18 05:11:07;;;;;;;;;;;13.20;99.90;;;;;;5083794;28;19935;-88
2022/04/18 05:13:33;;;;;;;;;;;13.30;99.90;;;;;;5065556;28;19905;-88
2022/04/18 05:15:59;;;;;;;;;;;13.30;99.90;;;;;;5065743;28;19950;-88
2022/04/18 05:18:24;;;;;;;;;;;13.20;99.90;;;;;;5065380;28;19976;-88
2022/04/18 05:20:50;;;;;;;;;;;13.30;99.90;;;;;;5083319;28;19912;-88
2022/04/18 05:23:17;;;;;;;;;;;13.30;99.90;;;;;;5065741;28;19904;-87
2022/04/18 05:25:42;;;;;;;;;;;13.20;99.90;;;;;;5083541;28;19905;-88
2022/04/18 05:28:08;;;;;;;;;;;13.20;99.90;;;;;;5083373;28;20199;-88
2022/04/18 05:30:35;;;;;;;;;;;13.30;99.90;;;;;;5083388;28;20208;-87
2022/04/18 05:33:01;;;;;;;;;;;13.20;99.90;;;;;;5082814;28;19943;-88
2022/04/18 05:35:27;;;;;;;;;;;13.20;99.90;;;;;;5065340;28;19940;-88
2022/04/18 05:37:52;;;;;;;;;;;13.30;99.90;;;;;;5083227;28;20215;-88
2022/04/18 05:40:18;;;;;;;;;;;13.30;99.90;;;;;;5083466;28;19927;-88
2022/04/18 05:42:43;;;;;;;;;;;13.30;99.90;;;;;;5068003;28;19904;-88
2022/04/18 05:45:09;;;;;;;;;;;13.30;99.90;;;;;;5066137;28;19915;-88
2022/04/18 05:47:35;;;;;;;;;;;13.20;99.90;;;;;;5064830;28;19905;-88
2022/04/18 05:50:00;;;;;;;;;;;13.00;99.90;;;;;;5082621;28;19962;-88
2022/04/18 05:52:26;;;;;;;;;;;13.10;99.90;;;;;;5064470;28;20018;-88
2022/04/18 05:54:51;;;;;;;;;;;13.10;99.90;;;;;;5081151;28;19905;-87
2022/04/18 05:57:17;;;;;;;;;;;13.10;99.90;;;;;;5082764;28;19905;-88
2022/04/18 05:59:43;;;;;;;;;;;13.00;99.90;;;;;;5082669;28;19904;-87
2022/04/18 06:02:08;;;;;;;;;;;13.00;99.90;;;;;;5071940;28;20369;-87
2022/04/18 06:04:34;;;;;;;;;;;13.00;99.90;;;;;;5053429;28;19908;-88
2022/04/18 06:06:59;;;;;;;;;;;13.00;99.90;;;;;;5052627;28;20290;-88
2022/04/18 06:09:25;;;;;;;;;;;13.10;99.90;;;;;;5070836;28;20277;-87
2022/04/18 06:11:51;;;;;;;;;;;13.10;99.90;;;;;;5068801;28;19920;-87
2022/04/18 06:14:16;;;;;;;;;;;13.20;99.90;;;;;;5052788;28;20288;-87
2022/04/18 06:16:42;;;;;;;;;;;13.40;99.90;;;;;;5052004;28;19908;-87
2022/04/18 06:19:07;;;;;;;;;;;13.50;99.90;;;;;;5052612;28;20339;-87
2022/04/18 06:21:33;;;;;;;;;;;13.60;99.90;;;;;;5070358;28;20023;-87
2022/04/18 06:23:59;;;;;;;;;;;13.70;99.90;;;;;;5069573;28;19955;-87
2022/04/18 06:26:24;;;;;;;;;;;13.70;99.90;;;;;;5051945;28;19983;-88
2022/04/18 06:28:51;;;;;;;;;;;13.70;99.90;;;;;;5076266;28;20463;-87
2022/04/18 06:31:17;;;;;;;;;;;13.60;99.90;;;;;;5071204;28;20028;-87
2022/04/18 06:33:42;;;;;;;;;;;13.60;99.90;;;;;;5071413;28;19952;-87
2022/04/18 06:36:08;;;;;;;;;;;13.50;99.90;;;;;;5078131;28;19905;-87
2022/04/18 06:38:33;;;;;;;;;;;13.50;99.90;;;;;;5070808;28;19909;-87
2022/04/18 06:40:59;;;;;;;;;;;13.50;99.90;;;;;;5074904;28;19915;-87
2022/04/18 06:43:24;;;;;;;;;;;13.50;99.90;;;;;;5077539;28;19904;-87
2022/04/18 06:45:50;;;;;;;;;;;13.50;99.90;;;;;;5079379;28;20188;-87
2022/04/18 06:48:16;;;;;;;;;;;13.70;99.90;;;;;;5077968;28;19911;-87
2022/04/18 06:50:42;;;;;;;;;;;13.80;99.90;;;;;;5074127;28;19947;-87
2022/04/18 06:53:07;;;;;;;;;;;13.70;99.90;;;;;;5061273;28;19911;-87
2022/04/18 06:58:17;;;;;;;;;;;13.70;99.90;;;;;;5077436;28;19950;-87
2022/04/18 07:00:42;;;;;;;;;;;13.80;99.90;;;;;;5052257;28;19908;-87
2022/04/18 07:03:08;;;;;;;;;;;13.80;99.90;;;;;;5051854;28;20361;-87
2022/04/18 07:05:34;;;;;;;;;;;13.80;99.90;;;;;;5052121;28;19909;-88
2022/04/18 07:07:59;;;;;;;;;;;13.80;99.90;;;;;;5070350;28;20278;-88
2022/04/18 07:10:25;;;;;;;;;;;13.80;99.90;;;;;;5071371;28;20011;-88
2022/04/18 07:12:50;;;;;;;;;;;13.80;99.90;;;;;;5056845;28;20415;-87
2022/04/18 07:15:16;;;;;;;;;;;13.80;99.90;;;;;;5052252;28;19908;-87
2022/04/18 07:17:41;;;;;;;;;;;13.70;99.90;;;;;;5072850;28;19905;-87
2022/04/18 07:20:07;;;;;;;;;;;13.60;99.90;;;;;;5051893;28;19940;-87
2022/04/18 07:22:37;;;;;;;;;;;13.70;99.90;;;;;;5070225;28;19920;-88
2022/04/18 07:25:06;;;;;;;;;;;13.60;99.90;;;;;;5052028;28;20031;-87
2022/04/18 07:27:31;;;;;;;;;;;13.70;99.90;;;;;;5070066;28;19920;-87
2022/04/18 07:29:57;;;;;;;;;;;13.80;99.90;;;;;;5051578;28;19913;-87
2022/04/18 07:32:22;;;;;;;;;;;13.80;99.90;;;;;;5069761;28;20332;-87
2022/04/18 07:34:48;;;;;;;;;;;13.80;99.90;;;;;;5053628;28;20000;-88
2022/04/18 07:37:14;;;;;;;;;;;13.90;99.90;;;;;;5074677;28;20332;-88
2022/04/18 07:39:39;;;;;;;;;;;13.90;99.90;;;;;;5074190;28;19935;-89
2022/04/18 07:42:05;;;;;;;;;;;14.00;99.90;;;;;;5074246;28;20007;-89
2022/04/18 07:44:30;;;;;;;;;;;14.10;99.90;;;;;;5056726;28;19909;-89
2022/04/18 07:46:57;;;;;;;;;;;14.10;99.90;;;;;;5074111;28;19913;-89
2022/04/18 07:49:22;;;;;;;;;;;14.20;99.90;;;;;;5056799;28;19991;-90
2022/04/18 07:51:48;;;;;;;;;;;14.30;99.90;;;;;;5074082;28;20027;-89
2022/04/18 07:54:17;;;;;;;;;;;14.20;99.90;;;;;;5073810;28;19908;-89
2022/04/18 07:56:43;;;;;;;;;;;14.20;99.90;;;;;;5055897;28;20353;-89
2022/04/18 07:59:09;;;;;;;;;;;14.20;99.90;;;;;;5074158;28;19909;-90
2022/04/18 08:01:35;;;;;;;;;;;14.10;99.90;;;;;;5055736;28;19914;-90
2022/04/18 08:04:01;;;;;;;;;;;14.00;99.90;;;;;;5074398;28;19912;-89
2022/04/18 08:06:27;;;;;;;;;;;14.00;99.90;;;;;;5056097;28;19909;-89
2022/04/18 08:08:53;;;;;;;;;;;14.20;99.90;;;;;;5074509;28;19908;-89
2022/04/18 08:11:18;;;;;;;;;;;14.30;99.90;;;;;;5073789;28;19943;-89
2022/04/18 08:13:45;;;;;;;;;;;14.40;99.90;;;;;;5074169;28;20419;-90
2022/04/18 08:16:11;;;;;;;;;;;14.30;99.90;;;;;;5073814;28;20384;-90
2022/04/18 08:18:43;;;;;;;;;;;14.40;99.90;;;;;;5055503;28;19909;-90
2022/04/18 08:21:09;;;;;;;;;;;14.50;99.90;;;;;;5073597;28;19932;-89
2022/04/18 08:23:35;;;;;;;;;;;14.70;99.90;;;;;;5073711;28;19913;-88
2022/04/18 08:26:01;;;;;;;;;;;15.00;99.90;;;;;;5055687;28;19912;-89
2022/04/18 08:28:27;;;;;;;;;;;15.00;99.90;;;;;;5055839;28;19928;-89
2022/04/18 08:30:53;;;;;;;;;;;15.10;99.90;;;;;;5055829;28;20019;-87
2022/04/18 08:33:19;;;;;;;;;;;15.00;99.90;;;;;;5082449;28;19916;-90
2022/04/18 08:35:44;;;;;;;;;;;15.00;99.90;;;;;;5066498;28;19951;-90
2022/04/18 08:38:10;;;;;;;;;;;15.10;99.90;;;;;;5086245;28;19904;-90
2022/04/18 08:40:37;;;;;;;;;;;15.30;99.90;;;;;;5066472;28;19976;-89
2022/04/18 08:43:03;;;;;;;;;;;15.30;99.90;;;;;;5084467;28;19967;-85
2022/04/18 08:45:28;;;;;;;;;;;15.10;99.90;;;;;;5084409;28;20193;-89
2022/04/18 08:53:29;;;;;;;;;;;15.90;99.90;;;;;;5072482;28;20012;-88
2022/04/18 08:55:56;;;;;;;;;;;16.00;99.90;;;;;;5072150;28;20377;-88
2022/04/18 08:58:22;;;;;;;;;;;16.20;99.90;;;;;;5054436;28;19912;-89
2022/04/18 09:00:48;;;;;;;;;;;16.10;99.90;;;;;;5072448;28;19962;-88
2022/04/18 09:03:13;;;;;;;;;;;16.20;99.90;;;;;;5053812;28;19916;-89
2022/04/18 09:05:39;;;;;;;;;;;16.10;99.90;;;;;;5072635;28;19908;-88
2022/04/18 09:08:06;;;;;;;;;;;16.00;99.90;;;;;;5054296;28;19916;-87
2022/04/18 09:10:32;;;;;;;;;;;15.90;99.90;;;;;;5072181;28;19917;-88
2022/04/18 09:13:05;;;;;;;;;;;15.90;99.90;;;;;;5071928;28;19963;-88
2022/04/18 09:15:34;;;;;;;;;;;16.00;99.90;;;;;;5054013;28;19987;-88
2022/04/18 09:18:12;;;;;;;;;;;15.90;99.90;;;;;;5072002;28;19990;-87
2022/04/18 09:20:42;;;;;;;;;;;16.00;99.90;;;;;;5072010;28;19927;-88
2022/04/18 09:23:18;;;;;;;;;;;15.80;99.90;;;;;;5048197;28;19916;-88
2022/04/18 09:25:43;;;;;;;;;;;15.80;99.90;;;;;;5056042;28;19953;-88
2022/04/18 09:28:10;;;;;;;;;;;15.80;99.90;;;;;;5075911;28;19970;-88
2022/04/18 09:30:36;;;;;;;;;;;15.80;99.90;;;;;;5071969;28;19999;-89
2022/04/18 09:33:03;;;;;;;;;;;15.70;99.90;;;;;;5071458;28;20030;-88
2022/04/18 09:35:28;;;;;;;;;;;15.60;99.90;;;;;;5071768;28;19912;-88
2022/04/18 09:37:58;;;;;;;;;;;15.80;99.90;;;;;;5071839;28;19909;-89
2022/04/18 09:40:24;;;;;;;;;;;15.50;99.90;;;;;;5071746;28;20451;-90
2022/04/18 09:42:53;;;;;;;;;;;15.70;99.90;;;;;;5071667;28;19944;-88
2022/04/18 09:45:19;;;;;;;;;;;16.10;99.90;;;;;;5065989;28;19908;-88
2022/04/18 09:47:52;;;;;;;;;;;16.30;99.90;;;;;;5053022;28;19919;-88
2022/04/18 09:53:06;;;;;;;;;;;16.60;99.90;;;;;;5071447;28;20269;-88
2022/04/18 09:55:31;;;;;;;;;;;16.90;99.90;;;;;;5071169;28;19909;-88
2022/04/18 09:58:03;;;;;;;;;;;17.10;99.90;;;;;;5071132;28;19920;-88
2022/04/18 10:00:29;;;;;;;;;;;17.10;99.90;;;;;;5071498;28;19919;-87
2022/04/18 10:02:55;;;;;;;;;;;16.90;99.90;;;;;;5052952;28;19947;-89
2022/04/18 10:05:21;;;;;;;;;;;16.60;99.90;;;;;;5071130;28;19917;-89
2022/04/18 10:07:47;;;;;;;;;;;16.60;99.90;;;;;;5074875;28;19931;-90
2022/04/18 10:10:13;;;;;;;;;;;16.60;99.90;;;;;;5077424;28;20396;-89
2022/04/18 10:12:39;;;;;;;;;;;16.50;99.90;;;;;;5072112;28;19931;-90
2022/04/18 10:15:05;;;;;;;;;;;16.30;99.90;;;;;;5071545;28;19912;-90
2022/04/18 10:17:32;;;;;;;;;;;16.40;99.90;;;;;;5053290;28;19927;-89
2022/04/18 10:20:24;;;;;;;;;;;16.60;99.90;;;;;;5053827;28;19914;-89
2022/04/18 10:23:09;;;;;;;;;;;16.80;99.90;;;;;;5071667;28;19965;-89
2022/04/18 10:25:54;;;;;;;;;;;17.00;99.90;;;;;;5053944;28;19935;-90
2022/04/18 10:28:21;;;;;;;;;;;17.00;99.90;;;;;;5053324;28;19908;-90
2022/04/18 10:30:55;;;;;;;;;;;17.30;99.90;;;;;;5053884;28;20421;-89
2022/04/18 10:33:21;;;;;;;;;;;17.60;99.90;;;;;;5049777;28;20343;-90
2022/04/18 10:35:56;;;;;;;;;;;17.70;99.90;;;;;;5071766;28;19908;-89
2022/04/18 10:38:27;;;;;;;;;;;17.50;99.90;;;;;;5071989;28;19915;-88
2022/04/18 10:43:53;;;;;;;;;;;17.80;99.90;;;;;;5071603;28;19955;-89
2022/04/18 10:46:19;;;;;;;;;;;17.90;99.90;;;;;;5071071;28;19908;-89
2022/04/18 10:48:53;;;;;;;;;;;18.00;99.90;;;;;;5053320;28;19908;-89
2022/04/18 10:51:37;;;;;;;;;;;18.00;99.90;;;;;;5053080;28;19956;-88
2022/04/18 10:54:04;;;;;;;;;;;18.10;99.90;;;;;;5071312;28;19915;-89
2022/04/18 10:56:45;;;;;;;;;;;18.20;99.90;;;;;;5053414;28;19930;-89
2022/04/18 10:59:11;;;;;;;;;;;18.30;99.90;;;;;;5053456;28;19915;-89
2022/04/18 11:01:37;;;;;;;;;;;18.30;99.90;;;;;;5052792;28;20151;-90
2022/04/18 11:04:07;;;;;;;;;;;18.50;99.90;;;;;;5071601;28;20396;-89
2022/04/18 11:06:39;;;;;;;;;;;18.80;99.90;;;;;;5071373;28;19908;-89
2022/04/18 11:09:09;;;;;;;;;;;18.50;99.90;;;;;;5065381;28;20003;-90
2022/04/18 11:11:55;;;;;;;;;;;18.40;99.90;;;;;;5070494;28;19916;-90
2022/04/18 11:14:24;;;;;;;;;;;18.30;99.90;;;;;;5071127;28;20405;-89
2022/04/18 11:16:54;;;;;;;;;;;18.20;99.90;;;;;;5055426;28;20150;-89
2022/04/18 11:19:22;;;;;;;;;;;18.20;99.90;;;;;;5079433;28;19920;-89
2022/04/18 11:24:31;;;;;;;;;;;18.90;99.90;;;;;;5071214;28;20327;-89
2022/04/18 11:26:57;;;;;;;;;;;19.00;99.90;;;;;;5052801;28;19915;-89
2022/04/18 11:29:22;;;;;;;;;;;18.90;99.90;;;;;;5070896;28;19909;-90
2022/04/18 11:31:48;;;;;;;;;;;18.80;99.90;;;;;;5070589;28;19921;-89
2022/04/18 11:34:14;;;;;;;;;;;18.80;99.90;;;;;;5071247;28;19908;-89
2022/04/18 11:36:40;;;;;;;;;;;18.70;99.90;;;;;;5071255;28;20365;-90
2022/04/18 11:39:06;;;;;;;;;;;18.90;99.90;;;;;;5052934;28;19916;-89
2022/04/18 11:41:31;;;;;;;;;;;19.20;99.90;;;;;;5062201;28;19909;-89
2022/04/18 11:43:58;;;;;;;;;;;19.50;99.90;;;;;;5071782;28;19908;-90
2022/04/18 11:46:28;;;;;;;;;;;19.40;99.90;;;;;;5052169;28;20301;-89
2022/04/18 11:48:54;;;;;;;;;;;19.30;99.90;;;;;;5070805;28;19916;-90
2022/04/18 11:51:39;;;;;;;;;;;19.40;99.90;;;;;;5052949;28;19917;-89
2022/04/18 11:54:04;;;;;;;;;;;19.50;99.90;;;;;;5070848;28;20280;-89
2022/04/18 11:56:30;;;;;;;;;;;19.30;99.90;;;;;;5052540;28;19916;-89
2022/04/18 11:58:55;;;;;;;;;;;19.20;99.90;;;;;;5070550;28;19909;-90
2022/04/18 12:06:49;;;;;;;;;;;19.40;99.90;;;;;;5066414;28;19916;-90
2022/04/18 12:09:22;;;;;;;;;;;19.80;99.90;;;;;;5053019;28;19908;-89
2022/04/18 12:11:48;;;;;;;;;;;20.40;99.90;;;;;;5070652;28;19916;-91
2022/04/18 12:14:14;;;;;;;;;;;20.10;99.90;;;;;;5052111;28;19909;-90
2022/04/18 12:16:40;;;;;;;;;;;20.30;99.90;;;;;;5070135;28;19909;-89
2022/04/18 12:19:06;;;;;;;;;;;20.30;99.90;;;;;;5070528;28;20245;-89
2022/04/18 12:21:33;;;;;;;;;;;20.50;99.90;;;;;;5048782;28;19971;-90
2022/04/18 12:23:59;;;;;;;;;;;20.00;99.90;;;;;;5052011;28;20385;-90
2022/04/18 12:26:26;;;;;;;;;;;19.60;99.90;;;;;;5054322;28;19915;-89
2022/04/18 12:29:03;;;;;;;;;;;19.00;99.90;;;;;;5053945;28;19909;-89
2022/04/18 12:31:29;;;;;;;;;;;19.10;99.90;;;;;;5053785;28;20516;-89
2022/04/18 12:33:57;;;;;;;;;;;19.20;99.90;;;;;;5053665;28;19924;-88
2022/04/18 12:36:26;;;;;;;;;;;18.90;99.90;;;;;;5053854;28;19951;-90
2022/04/18 12:38:52;;;;;;;;;;;18.80;99.90;;;;;;5052359;28;19997;-90
2022/04/18 12:41:38;;;;;;;;;;;18.70;99.90;;;;;;5052432;28;19999;-89
2022/04/18 12:44:10;;;;;;;;;;;18.80;99.90;;;;;;5052470;28;20343;-89
2022/04/18 12:46:36;;;;;;;;;;;19.00;99.90;;;;;;5053187;28;19923;-90
2022/04/18 12:49:06;;;;;;;;;;;19.10;99.90;;;;;;5053709;28;19913;-89
2022/04/18 12:51:37;;;;;;;;;;;19.10;99.90;;;;;;5053534;28;19979;-89
2022/04/18 12:54:03;;;;;;;;;;;19.10;99.90;;;;;;5053695;28;19924;-89
2022/04/18 12:56:29;;;;;;;;;;;19.10;99.90;;;;;;5051692;28;19912;-90
2022/04/18 12:58:54;;;;;;;;;;;19.30;99.90;;;;;;5053322;28;19912;-90
2022/04/18 13:01:26;;;;;;;;;;;19.70;99.90;;;;;;5053305;28;20368;-90
2022/04/18 13:03:52;;;;;;;;;;;19.80;99.90;;;;;;5051803;28;20285;-89
2022/04/18 13:06:29;;;;;;;;;;;19.70;99.90;;;;;;5050540;28;19978;-89
2022/04/18 13:09:05;;;;;;;;;;;19.90;99.90;;;;;;5058287;28;19917;-89
2022/04/18 13:11:36;;;;;;;;;;;19.60;99.90;;;;;;5053213;28;20388;-89
2022/04/18 13:14:03;;;;;;;;;;;19.60;99.90;;;;;;5053492;28;19909;-89
2022/04/18 13:16:28;;;;;;;;;;;19.60;99.90;;;;;;5058919;28;19990;-89
2022/04/18 13:19:00;;;;;;;;;;;20.10;99.90;;;;;;5053171;28;20369;-89
2022/04/18 13:21:28;;;;;;;;;;;20.20;99.90;;;;;;5063417;28;19920;-89
2022/04/18 13:23:56;;;;;;;;;;;20.30;99.90;;;;;;5072935;28;19912;-89
2022/04/18 13:26:22;;;;;;;;;;;20.70;99.90;;;;;;5072890;28;19909;-89
2022/04/18 13:28:47;;;;;;;;;;;20.90;99.90;;;;;;5072514;28;19916;-90
2022/04/18 13:31:13;;;;;;;;;;;21.00;99.90;;;;;;5072274;28;19917;-89
2022/04/18 13:33:38;;;;;;;;;;;21.30;99.90;;;;;;5072151;28;19908;-90
2022/04/18 13:38:48;;;;;;;;;;;22.20;99.90;;;;;;5072720;28;19915;-89
2022/04/18 13:41:14;;;;;;;;;;;22.60;99.90;;;;;;5054640;28;19908;-89
2022/04/18 13:43:40;;;;;;;;;;;22.80;99.90;;;;;;5072806;28;19909;-90
2022/04/18 13:46:06;;;;;;;;;;;23.20;99.90;;;;;;5054437;28;19909;-90
2022/04/18 13:48:33;;;;;;;;;;;23.50;99.90;;;;;;5072331;28;19908;-90
2022/04/18 13:50:59;;;;;;;;;;;23.50;99.90;;;;;;5072498;28;19916;-90
2022/04/18 13:53:25;;;;;;;;;;;23.50;99.50;;;;;;5072359;28;19909;-89
2022/04/18 13:55:50;;;;;;;;;;;23.50;99.90;;;;;;5072020;28;19912;-90
2022/04/18 13:58:16;;;;;;;;;;;23.10;99.90;;;;;;5054373;28;20282;-90
2022/04/18 14:00:43;;;;;;;;;;;22.90;99.90;;;;;;5072001;28;19908;-90
2022/04/18 14:03:09;;;;;;;;;;;23.40;99.80;;;;;;5072074;28;19909;-91
2022/04/18 14:05:36;;;;;;;;;;;23.70;99.80;;;;;;5071815;28;19931;-89
2022/04/18 14:08:02;;;;;;;;;;;24.20;99.40;;;;;;5053951;28;19916;-89
2022/04/18 14:10:27;;;;;;;;;;;24.20;99.70;;;;;;5071728;28;20385;-91
2022/04/18 14:12:53;;;;;;;;;;;24.60;99.10;;;;;;5071694;28;20376;-90
2022/04/18 14:20:47;;;;;;;;;;;25.80;97.80;;;;;;5072270;28;19959;-90
2022/04/18 14:23:13;;;;;;;;;;;26.30;96.90;;;;;;5053672;28;19964;-90
2022/04/18 14:25:39;;;;;;;;;;;25.80;97.20;;;;;;5071258;28;19962;-88
2022/04/18 14:28:05;;;;;;;;;;;26.60;96.70;;;;;;5071555;28;19908;-90
2022/04/18 14:30:31;;;;;;;;;;;26.90;95.90;;;;;;5071293;28;19928;-91
2022/04/18 14:32:57;;;;;;;;;;;26.50;96.70;;;;;;5071516;28;19909;-91
2022/04/18 14:35:23;;;;;;;;;;;25.90;96.40;;;;;;5071523;28;19908;-87
2022/04/18 14:37:48;;;;;;;;;;;25.40;97.20;;;;;;5071616;28;19955;-88
2022/04/18 14:40:14;;;;;;;;;;;25.40;97.10;;;;;;5071189;28;19951;-89
2022/04/18 14:42:40;;;;;;;;;;;26.30;96.30;;;;;;5071075;28;19909;-91
2022/04/18 14:45:06;;;;;;;;;;;26.60;95.60;;;;;;5052138;28;19909;-89
2022/04/18 14:47:32;;;;;;;;;;;26.40;95.50;;;;;;5069727;28;19930;-90
2022/04/18 14:50:00;;;;;;;;;;;26.60;95.10;;;;;;5071228;28;20003;-89
2022/04/18 14:52:26;;;;;;;;;;;27.50;94.40;;;;;;5076705;28;20442;-89
2022/04/18 14:54:51;;;;;;;;;;;27.80;94.60;;;;;;5052530;28;19956;-90